Time;durP1;ratioP1;P1;durP2;ratioP2;P2;SDS_P1;SDS_P2;PMS_P1;PMS_P2;Temp;Humidity;BMP_temperature;BMP_pressure;BME280_temperature;BME280_humidity;BME280_pressure;Samples;Min_cycle;Max_cycle;Signal;HPM_P1;HPM_P2
2022/08/21 00:01:23;;;;;;;3.72;2.40;;;;;;;;;;10112697;29;20918;-91
2022/08/21 00:06:25;;;;;;;4.22;2.60;;;;;;;;;;10112342;29;20424;-91
2022/08/21 00:11:27;;;;;;;4.55;2.30;;;;;;;;;;10106576;29;20463;-91
2022/08/21 00:16:31;;;;;;;4.13;2.85;;;;;;;;;;10121088;29;20429;-91
2022/08/21 00:21:33;;;;;;;2.58;2.38;;;;;;;;;;10111217;29;20423;-91
2022/08/21 00:26:35;;;;;;;4.23;2.50;;;;;;;;;;10105271;29;20468;-91
2022/08/21 00:31:39;;;;;;;4.10;2.37;;;;;;;;;;10122531;29;20425;-91
2022/08/21 00:36:41;;;;;;;3.90;2.33;;;;;;;;;;10142698;29;20421;-89
2022/08/21 00:41:44;;;;;;;2.95;2.30;;;;;;;;;;10111485;29;20497;-89
2022/08/21 00:46:48;;;;;;;2.67;2.40;;;;;;;;;;10135293;29;20415;-89
2022/08/21 00:51:53;;;;;;;3.35;2.50;;;;;;;;;;10117079;29;20501;-89
2022/08/21 00:56:59;;;;;;;3.20;2.25;;;;;;;;;;10102335;29;20484;-89
2022/08/21 01:02:04;;;;;;;2.88;1.90;;;;;;;;;;10110553;29;20500;-89
2022/08/21 01:07:06;;;;;;;2.67;1.98;;;;;;;;;;10108950;29;20426;-89
2022/08/21 01:12:09;;;;;;;3.80;2.00;;;;;;;;;;10113639;29;20426;-89
2022/08/21 01:17:14;;;;;;;2.17;1.90;;;;;;;;;;10108725;29;20670;-89
2022/08/21 01:22:19;;;;;;;3.00;1.80;;;;;;;;;;10111862;29;20874;-89
2022/08/21 01:27:21;;;;;;;3.23;1.83;;;;;;;;;;10109070;29;20551;-88
2022/08/21 01:32:24;;;;;;;3.20;1.80;;;;;;;;;;10107533;29;20426;-89
2022/08/21 01:37:28;;;;;;;2.83;1.83;;;;;;;;;;10114747;29;20433;-89
2022/08/21 01:42:30;;;;;;;2.00;1.67;;;;;;;;;;10108561;29;20449;-89
2022/08/21 01:47:33;;;;;;;2.58;1.83;;;;;;;;;;10107809;29;20478;-89
2022/08/21 01:52:37;;;;;;;2.35;1.80;;;;;;;;;;10110330;29;20451;-89
2022/08/21 01:57:39;;;;;;;1.83;1.63;;;;;;;;;;10107441;29;20508;-89
2022/08/21 02:02:42;;;;;;;2.67;1.83;;;;;;;;;;10109887;29;20433;-89
2022/08/21 02:07:48;;;;;;;2.83;2.08;;;;;;;;;;10104656;29;20509;-89
2022/08/21 02:12:50;;;;;;;3.25;2.17;;;;;;;;;;10103967;29;20433;-89
2022/08/21 02:17:55;;;;;;;2.20;2.00;;;;;;;;;;10109338;29;20800;-89
2022/08/21 02:23:00;;;;;;;2.83;2.00;;;;;;;;;;10107566;29;20476;-89
2022/08/21 02:28:05;;;;;;;2.22;1.90;;;;;;;;;;10107011;29;20909;-89
2022/08/21 02:33:09;;;;;;;2.72;2.28;;;;;;;;;;10109796;29;20422;-89
2022/08/21 02:38:15;;;;;;;3.43;2.27;;;;;;;;;;10108461;29;20438;-89
2022/08/21 02:43:17;;;;;;;3.58;2.28;;;;;;;;;;10102076;29;20426;-89
2022/08/21 02:48:21;;;;;;;2.85;2.35;;;;;;;;;;10109213;29;20454;-89
2022/08/21 02:53:26;;;;;;;4.05;2.30;;;;;;;;;;10108838;29;20430;-89
2022/08/21 02:58:31;;;;;;;2.67;2.38;;;;;;;;;;10093032;29;20512;-89
2022/08/21 03:03:34;;;;;;;2.97;2.30;;;;;;;;;;10108596;29;20882;-89
2022/08/21 03:08:38;;;;;;;2.33;2.13;;;;;;;;;;10107235;29;20414;-89
2022/08/21 03:13:41;;;;;;;2.80;2.58;;;;;;;;;;10106178;29;20454;-90
2022/08/21 03:18:42;;;;;;;3.33;2.50;;;;;;;;;;10109882;29;20464;-89
2022/08/21 03:23:46;;;;;;;2.97;2.40;;;;;;;;;;10107473;29;20460;-89
2022/08/21 03:28:48;;;;;;;3.83;2.53;;;;;;;;;;10109127;29;20431;-89
2022/08/21 03:33:50;;;;;;;3.17;2.40;;;;;;;;;;10119584;29;20487;-89
2022/08/21 03:38:54;;;;;;;2.95;2.35;;;;;;;;;;10114826;29;20435;-90
2022/08/21 03:43:55;;;;;;;4.00;2.90;;;;;;;;;;10106608;29;20549;-89
2022/08/21 03:48:58;;;;;;;4.72;2.38;;;;;;;;;;10114786;29;20430;-89
2022/08/21 03:54:01;;;;;;;3.20;2.47;;;;;;;;;;10116764;29;20440;-89
2022/08/21 03:59:03;;;;;;;5.22;2.47;;;;;;;;;;10124556;29;20438;-89
2022/08/21 04:04:06;;;;;;;3.42;2.28;;;;;;;;;;10117386;29;20472;-89
2022/08/21 04:09:09;;;;;;;5.03;2.20;;;;;;;;;;10097754;23;20467;-87
2022/08/21 04:14:11;;;;;;;3.40;2.30;;;;;;;;;;10077564;29;20432;-88
2022/08/21 04:19:14;;;;;;;3.17;2.25;;;;;;;;;;10074417;29;20448;-87
2022/08/21 04:24:17;;;;;;;5.78;2.42;;;;;;;;;;10074333;29;20422;-88
2022/08/21 04:29:19;;;;;;;3.93;2.87;;;;;;;;;;10075137;29;20426;-87
2022/08/21 04:34:21;;;;;;;4.18;2.67;;;;;;;;;;10074015;29;20791;-87
2022/08/21 04:39:25;;;;;;;4.13;2.50;;;;;;;;;;10056645;29;20798;-88
2022/08/21 04:44:27;;;;;;;3.17;2.40;;;;;;;;;;10075812;29;20560;-88
2022/08/21 04:49:29;;;;;;;2.85;2.22;;;;;;;;;;10074768;29;20568;-88
2022/08/21 04:54:32;;;;;;;2.33;2.10;;;;;;;;;;10073867;29;20519;-88
2022/08/21 04:59:39;;;;;;;3.60;2.00;;;;;;;;;;10074922;29;20451;-87
2022/08/21 05:04:45;;;;;;;3.00;2.00;;;;;;;;;;10072325;29;20424;-87
2022/08/21 05:09:49;;;;;;;4.73;2.20;;;;;;;;;;10070688;29;20937;-88
2022/08/21 05:14:51;;;;;;;3.20;2.08;;;;;;;;;;10074721;29;20519;-87
2022/08/21 05:19:53;;;;;;;3.40;1.85;;;;;;;;;;10071893;29;20440;-87
2022/08/21 05:24:58;;;;;;;2.57;1.90;;;;;;;;;;10068414;29;20571;-88
2022/08/21 05:30:00;;;;;;;2.20;1.77;;;;;;;;;;10073182;29;20435;-87
2022/08/21 05:35:02;;;;;;;1.75;1.65;;;;;;;;;;10071778;29;20420;-88
2022/08/21 05:40:07;;;;;;;2.08;1.60;;;;;;;;;;10067463;29;20439;-87
2022/08/21 05:45:09;;;;;;;2.40;1.43;;;;;;;;;;10072391;29;20436;-88
2022/08/21 05:50:11;;;;;;;2.38;1.40;;;;;;;;;;10070247;29;20507;-88
2022/08/21 05:55:15;;;;;;;2.15;1.35;;;;;;;;;;10069404;29;21055;-88
2022/08/21 06:00:17;;;;;;;1.90;1.20;;;;;;;;;;10073570;29;20777;-87
2022/08/21 06:05:19;;;;;;;1.42;1.13;;;;;;;;;;10071100;29;20415;-87
2022/08/21 06:10:23;;;;;;;4.80;1.50;;;;;;;;;;10070655;29;20428;-87
2022/08/21 06:15:25;;;;;;;1.83;1.17;;;;;;;;;;10066814;29;20909;-87
2022/08/21 06:20:27;;;;;;;2.63;2.00;;;;;;;;;;10070010;29;20988;-87
2022/08/21 06:25:31;;;;;;;1.13;1.02;;;;;;;;;;10069982;29;20439;-87
2022/08/21 06:30:33;;;;;;;1.33;1.08;;;;;;;;;;10073098;29;20415;-87
2022/08/21 06:35:36;;;;;;;2.03;1.13;;;;;;;;;;10070084;29;20966;-88
2022/08/21 06:40:40;;;;;;;2.85;1.00;;;;;;;;;;10066799;29;20440;-87
2022/08/21 06:45:42;;;;;;;1.23;1.13;;;;;;;;;;10069107;29;20495;-88
2022/08/21 06:50:44;;;;;;;1.27;1.00;;;;;;;;;;10069701;29;20416;-87
2022/08/21 06:55:49;;;;;;;3.70;1.40;;;;;;;;;;10069977;29;20507;-87
2022/08/21 07:00:52;;;;;;;1.13;1.00;;;;;;;;;;10055809;29;20519;-87
2022/08/21 07:05:54;;;;;;;1.92;1.00;;;;;;;;;;10076831;29;20761;-88
2022/08/21 07:11:00;;;;;;;1.50;1.10;;;;;;;;;;10071791;29;20807;-88
2022/08/21 07:16:01;;;;;;;2.17;1.20;;;;;;;;;;10080072;29;20505;-88
2022/08/21 07:21:04;;;;;;;2.13;1.00;;;;;;;;;;10077031;29;20421;-88
2022/08/21 07:26:08;;;;;;;1.47;0.90;;;;;;;;;;10078948;29;20518;-88
2022/08/21 07:31:13;;;;;;;1.10;1.00;;;;;;;;;;10076472;29;20568;-88
2022/08/21 07:36:15;;;;;;;2.22;0.90;;;;;;;;;;10075961;29;20641;-88
2022/08/21 07:41:22;;;;;;;2.65;0.90;;;;;;;;;;10076009;29;20444;-87
2022/08/21 07:46:24;;;;;;;0.70;0.70;;;;;;;;;;10075587;29;20455;-88
2022/08/21 07:51:28;;;;;;;0.93;0.80;;;;;;;;;;10072120;29;20842;-88
2022/08/21 07:56:32;;;;;;;1.07;0.80;;;;;;;;;;10074616;29;20526;-88
2022/08/21 08:01:34;;;;;;;1.10;0.80;;;;;;;;;;10075328;29;20460;-88
2022/08/21 08:06:36;;;;;;;1.85;0.75;;;;;;;;;;10074796;29;20415;-88
2022/08/21 08:11:43;;;;;;;2.35;0.73;;;;;;;;;;10056746;29;20444;-88
2022/08/21 08:16:45;;;;;;;1.92;0.98;;;;;;;;;;10071035;29;20528;-88
2022/08/21 08:21:47;;;;;;;1.30;1.10;;;;;;;;;;10074615;29;20417;-88
2022/08/21 08:26:50;;;;;;;1.20;1.00;;;;;;;;;;10073714;29;20442;-88
2022/08/21 08:31:52;;;;;;;1.85;1.20;;;;;;;;;;10075040;29;20989;-88
2022/08/21 08:36:54;;;;;;;0.90;0.80;;;;;;;;;;10078541;29;20518;-88
2022/08/21 08:42:03;;;;;;;1.50;0.85;;;;;;;;;;10069362;29;20457;-88
2022/08/21 08:47:06;;;;;;;2.13;1.20;;;;;;;;;;10074499;29;20497;-88
2022/08/21 08:52:15;;;;;;;1.70;1.00;;;;;;;;;;10074139;29;20513;-88
2022/08/21 08:57:23;;;;;;;2.60;1.00;;;;;;;;;;10075574;29;20795;-88
2022/08/21 09:02:27;;;;;;;1.30;0.90;;;;;;;;;;10069546;29;20423;-88
2022/08/21 09:07:39;;;;;;;1.13;1.00;;;;;;;;;;10080629;29;20913;-88
2022/08/21 09:12:51;;;;;;;1.13;1.00;;;;;;;;;;10070995;29;20429;-88
2022/08/21 09:18:21;;;;;;;1.42;1.27;;;;;;;;;;10072761;29;20445;-88
2022/08/21 09:23:30;;;;;;;1.50;1.10;;;;;;;;;;10075494;29;20427;-88
2022/08/21 09:28:35;;;;;;;1.53;1.20;;;;;;;;;;10073141;29;20859;-89
2022/08/21 09:33:37;;;;;;;2.10;1.20;;;;;;;;;;10077000;29;20526;-88
2022/08/21 09:38:39;;;;;;;1.30;1.20;;;;;;;;;;10073396;29;20435;-88
2022/08/21 09:43:54;;;;;;;1.48;1.10;;;;;;;;;;10075243;29;20436;-88
2022/08/21 09:48:58;;;;;;;0.90;0.80;;;;;;;;;;10067991;29;20427;-88
2022/08/21 09:54:15;;;;;;;1.77;0.80;;;;;;;;;;10073775;29;20488;-89
2022/08/21 09:59:21;;;;;;;2.13;1.20;;;;;;;;;;10073908;29;20436;-89
2022/08/21 10:04:28;;;;;;;0.95;0.85;;;;;;;;;;10068170;29;20814;-88
2022/08/21 10:09:30;;;;;;;1.50;1.00;;;;;;;;;;10067858;29;20513;-89
2022/08/21 10:14:45;;;;;;;1.73;1.00;;;;;;;;;;10071275;29;20807;-89
2022/08/21 10:19:56;;;;;;;1.90;1.02;;;;;;;;;;10072444;29;20438;-89
2022/08/21 10:25:06;;;;;;;1.17;0.70;;;;;;;;;;10064736;29;20424;-88
2022/08/21 10:30:14;;;;;;;1.30;1.00;;;;;;;;;;10071757;29;20861;-88
2022/08/21 10:35:24;;;;;;;1.30;0.80;;;;;;;;;;10073177;29;20509;-89
2022/08/21 10:40:30;;;;;;;0.90;0.80;;;;;;;;;;10075102;29;20435;-89
2022/08/21 10:45:53;;;;;;;1.20;0.80;;;;;;;;;;10079926;29;20488;-89
2022/08/21 10:51:05;;;;;;;1.30;0.80;;;;;;;;;;10079058;29;20419;-88
2022/08/21 10:56:16;;;;;;;1.33;0.80;;;;;;;;;;10076552;29;20428;-88
2022/08/21 11:01:26;;;;;;;1.40;0.70;;;;;;;;;;10082980;29;20438;-88
2022/08/21 11:06:32;;;;;;;1.07;0.90;;;;;;;;;;10074198;29;20907;-89
2022/08/21 11:11:40;;;;;;;1.40;0.80;;;;;;;;;;10079050;29;20505;-88
2022/08/21 11:16:46;;;;;;;1.00;0.82;;;;;;;;;;10078021;29;20507;-88
2022/08/21 11:21:55;;;;;;;0.77;0.77;;;;;;;;;;10077228;29;20509;-89
2022/08/21 11:27:02;;;;;;;0.70;0.70;;;;;;;;;;10074198;29;20454;-89
2022/08/21 11:32:38;;;;;;;1.02;0.80;;;;;;;;;;10079676;29;20424;-89
2022/08/21 11:37:51;;;;;;;1.20;0.75;;;;;;;;;;10074938;29;20864;-89
2022/08/21 11:43:03;;;;;;;0.77;0.77;;;;;;;;;;10081617;29;20525;-89
2022/08/21 11:48:16;;;;;;;0.80;0.73;;;;;;;;;;10046248;29;20483;-89
2022/08/21 11:53:23;;;;;;;0.80;0.60;;;;;;;;;;10076759;29;20430;-89
2022/08/21 11:58:30;;;;;;;1.38;0.50;;;;;;;;;;10078835;29;20526;-89
2022/08/21 12:03:36;;;;;;;1.17;0.60;;;;;;;;;;10061583;29;20510;-88
2022/08/21 12:08:40;;;;;;;0.95;0.40;;;;;;;;;;10075685;29;20669;-89
2022/08/21 12:13:55;;;;;;;0.50;0.50;;;;;;;;;;10078252;29;20917;-89
2022/08/21 12:19:05;;;;;;;0.80;0.60;;;;;;;;;;10068151;29;20471;-89
2022/08/21 12:24:18;;;;;;;1.80;0.60;;;;;;;;;;10075061;29;20435;-88
2022/08/21 12:29:26;;;;;;;0.90;0.50;;;;;;;;;;10077528;29;20510;-89
2022/08/21 12:34:47;;;;;;;1.30;0.60;;;;;;;;;;10071564;29;20418;-89
2022/08/21 12:39:52;;;;;;;1.45;0.68;;;;;;;;;;10074583;29;20524;-89
2022/08/21 12:44:58;;;;;;;1.05;0.50;;;;;;;;;;10078468;29;20431;-89
2022/08/21 12:50:08;;;;;;;0.55;0.40;;;;;;;;;;10064746;29;20747;-89
2022/08/21 12:55:15;;;;;;;1.70;0.57;;;;;;;;;;10076167;29;20452;-89
2022/08/21 13:00:23;;;;;;;0.80;0.60;;;;;;;;;;10074584;29;20434;-89
2022/08/21 13:05:32;;;;;;;0.60;0.60;;;;;;;;;;10074790;29;20460;-89
2022/08/21 13:10:35;;;;;;;0.90;0.57;;;;;;;;;;10012026;29;20433;-89
2022/08/21 13:15:41;;;;;;;0.77;0.52;;;;;;;;;;10013026;29;20482;-89
2022/08/21 13:20:45;;;;;;;0.50;0.50;;;;;;;;;;9999801;29;21002;-89
2022/08/21 13:25:47;;;;;;;0.50;0.50;;;;;;;;;;10013029;29;20998;-88
2022/08/21 13:30:51;;;;;;;0.60;0.30;;;;;;;;;;10012503;29;20518;-89
2022/08/21 13:36:04;;;;;;;0.93;0.50;;;;;;;;;;10015289;29;20512;-89
2022/08/21 13:41:21;;;;;;;0.50;0.50;;;;;;;;;;10001133;29;20469;-89
2022/08/21 13:46:25;;;;;;;0.90;0.50;;;;;;;;;;10001284;29;20438;-89
2022/08/21 13:51:28;;;;;;;0.40;0.40;;;;;;;;;;10013364;29;20522;-89
2022/08/21 13:56:32;;;;;;;1.10;0.50;;;;;;;;;;10009293;29;20422;-89
2022/08/21 14:01:39;;;;;;;1.00;0.50;;;;;;;;;;10015735;29;20438;-89
2022/08/21 14:06:42;;;;;;;0.77;0.47;;;;;;;;;;10027224;29;20427;-89
2022/08/21 14:11:45;;;;;;;1.27;0.77;;;;;;;;;;10074316;29;20425;-89
2022/08/21 14:16:53;;;;;;;1.10;0.70;;;;;;;;;;10071400;29;20445;-89
2022/08/21 14:21:57;;;;;;;0.88;0.75;;;;;;;;;;10067884;29;20531;-89
2022/08/21 14:27:04;;;;;;;1.40;0.60;;;;;;;;;;10070100;29;20418;-89
2022/08/21 14:32:13;;;;;;;0.70;0.60;;;;;;;;;;10072615;29;20446;-89
2022/08/21 14:37:16;;;;;;;1.00;0.60;;;;;;;;;;10070070;29;20503;-89
2022/08/21 14:42:18;;;;;;;0.60;0.60;;;;;;;;;;10072201;29;20907;-88
2022/08/21 14:47:20;;;;;;;0.55;0.50;;;;;;;;;;10071674;29;20525;-89
2022/08/21 14:52:24;;;;;;;1.63;0.60;;;;;;;;;;10075119;29;20510;-89
2022/08/21 14:57:27;;;;;;;1.13;0.60;;;;;;;;;;10070856;29;20424;-89
2022/08/21 15:02:28;;;;;;;1.13;0.70;;;;;;;;;;10064095;29;20440;-89
2022/08/21 15:07:32;;;;;;;2.80;0.80;;;;;;;;;;10067390;29;20432;-89
2022/08/21 15:12:34;;;;;;;1.00;0.70;;;;;;;;;;10072313;29;20516;-89
2022/08/21 15:17:36;;;;;;;2.20;0.80;;;;;;;;;;10070751;29;20508;-89
2022/08/21 15:22:40;;;;;;;0.80;0.70;;;;;;;;;;10072400;29;20413;-89
2022/08/21 15:27:42;;;;;;;1.70;0.83;;;;;;;;;;10076688;29;20514;-89
2022/08/21 15:32:44;;;;;;;1.00;0.65;;;;;;;;;;10077316;29;20568;-89
2022/08/21 15:37:48;;;;;;;1.97;1.00;;;;;;;;;;10077101;29;20500;-88
2022/08/21 15:42:58;;;;;;;0.87;0.70;;;;;;;;;;10078655;29;20782;-89
2022/08/21 15:48:00;;;;;;;1.90;0.90;;;;;;;;;;10111495;29;20419;-89
2022/08/21 15:53:04;;;;;;;1.00;0.90;;;;;;;;;;10083318;29;20462;-89
2022/08/21 15:58:06;;;;;;;0.85;0.75;;;;;;;;;;10117084;29;20448;-89
2022/08/21 16:03:12;;;;;;;1.60;0.70;;;;;;;;;;10081883;29;20409;-88
2022/08/21 16:08:15;;;;;;;1.38;0.57;;;;;;;;;;10089272;23;20940;-90
2022/08/21 16:13:22;;;;;;;0.93;0.60;;;;;;;;;;10072881;29;20473;-89
2022/08/21 16:18:25;;;;;;;0.63;0.60;;;;;;;;;;10078878;29;20431;-89
2022/08/21 16:23:28;;;;;;;1.48;0.60;;;;;;;;;;10061405;29;20848;-88
2022/08/21 16:28:31;;;;;;;0.60;0.60;;;;;;;;;;10076181;29;20967;-89
2022/08/21 16:33:35;;;;;;;1.30;0.70;;;;;;;;;;10069420;29;20513;-90
2022/08/21 16:38:41;;;;;;;2.70;0.70;;;;;;;;;;10067166;29;20506;-90
2022/08/21 16:43:44;;;;;;;1.20;0.70;;;;;;;;;;10071474;29;20428;-91
2022/08/21 16:48:46;;;;;;;1.70;0.60;;;;;;;;;;10070239;29;20474;-91
2022/08/21 16:53:49;;;;;;;3.13;0.70;;;;;;;;;;10073839;29;20523;-90
2022/08/21 16:58:54;;;;;;;1.13;0.70;;;;;;;;;;10075295;29;20433;-90
2022/08/21 17:03:56;;;;;;;1.43;0.60;;;;;;;;;;10073530;29;20425;-90
2022/08/21 17:09:00;;;;;;;1.13;0.50;;;;;;;;;;10072605;29;20487;-90
2022/08/21 17:14:05;;;;;;;0.80;0.60;;;;;;;;;;10069800;29;20511;-89
2022/08/21 17:19:06;;;;;;;0.57;0.57;;;;;;;;;;10069489;29;20452;-90
2022/08/21 17:24:11;;;;;;;0.75;0.60;;;;;;;;;;10076966;29;20505;-90
2022/08/21 17:29:14;;;;;;;1.20;0.60;;;;;;;;;;10080242;29;20423;-89
2022/08/21 17:34:16;;;;;;;0.82;0.82;;;;;;;;;;10072196;29;20502;-89
2022/08/21 17:39:20;;;;;;;0.80;0.80;;;;;;;;;;10072126;29;20512;-89
2022/08/21 17:44:22;;;;;;;1.38;0.90;;;;;;;;;;10070560;29;20466;-90
2022/08/21 17:49:24;;;;;;;1.98;0.88;;;;;;;;;;10072045;29;20513;-90
2022/08/21 17:54:27;;;;;;;3.40;0.90;;;;;;;;;;10068379;29;20520;-90
2022/08/21 17:59:29;;;;;;;2.80;1.30;;;;;;;;;;10066423;29;20464;-90
2022/08/21 18:04:31;;;;;;;2.38;1.70;;;;;;;;;;10085363;29;20427;-89
2022/08/21 18:09:35;;;;;;;1.98;1.35;;;;;;;;;;10116402;29;20428;-90
2022/08/21 18:14:40;;;;;;;2.10;1.40;;;;;;;;;;10077868;29;20428;-90
2022/08/21 18:19:43;;;;;;;1.55;1.10;;;;;;;;;;10071315;29;20847;-90
2022/08/21 18:24:46;;;;;;;3.80;1.30;;;;;;;;;;10072542;29;20454;-90
2022/08/21 18:29:50;;;;;;;2.50;1.27;;;;;;;;;;10070228;29;20421;-90
2022/08/21 18:34:54;;;;;;;1.70;1.40;;;;;;;;;;10070537;29;20707;-90
2022/08/21 18:39:58;;;;;;;2.38;1.48;;;;;;;;;;10070580;29;20464;-90
2022/08/21 18:45:02;;;;;;;2.78;1.77;;;;;;;;;;10066645;29;20519;-90
2022/08/21 18:50:04;;;;;;;2.70;1.70;;;;;;;;;;10067018;29;20945;-89
2022/08/21 18:55:09;;;;;;;1.53;1.40;;;;;;;;;;10063510;29;20848;-90
2022/08/21 19:00:15;;;;;;;2.10;1.50;;;;;;;;;;10072255;29;20523;-90
2022/08/21 19:05:19;;;;;;;1.85;1.50;;;;;;;;;;10078060;29;20505;-90
2022/08/21 19:10:23;;;;;;;2.42;1.80;;;;;;;;;;10082997;29;20454;-90
2022/08/21 19:15:25;;;;;;;4.15;1.70;;;;;;;;;;10074476;29;20507;-90
2022/08/21 19:20:31;;;;;;;3.27;1.90;;;;;;;;;;10069935;29;20860;-89
2022/08/21 19:25:35;;;;;;;4.20;2.00;;;;;;;;;;10074308;29;20419;-89
2022/08/21 19:30:39;;;;;;;2.80;2.08;;;;;;;;;;10072694;29;20856;-89
2022/08/21 19:35:40;;;;;;;3.17;2.08;;;;;;;;;;10074959;29;20424;-89
2022/08/21 19:40:44;;;;;;;3.25;1.92;;;;;;;;;;10076494;29;20515;-89
2022/08/21 19:45:46;;;;;;;3.80;2.00;;;;;;;;;;10074150;29;20453;-89
2022/08/21 19:50:48;;;;;;;3.33;2.47;;;;;;;;;;10075892;29;20764;-90
2022/08/21 19:55:52;;;;;;;5.57;2.20;;;;;;;;;;10074485;29;20848;-89
2022/08/21 20:00:54;;;;;;;4.17;1.87;;;;;;;;;;10072003;29;20469;-89
2022/08/21 20:05:56;;;;;;;3.77;1.80;;;;;;;;;;10072342;29;20453;-89
2022/08/21 20:11:00;;;;;;;3.28;1.92;;;;;;;;;;10068353;29;20921;-89
2022/08/21 20:16:06;;;;;;;3.67;1.75;;;;;;;;;;10076436;29;20437;-89
2022/08/21 20:21:11;;;;;;;2.67;1.50;;;;;;;;;;10075156;29;20521;-89
2022/08/21 20:26:15;;;;;;;3.95;1.50;;;;;;;;;;10070451;29;20503;-89
2022/08/21 20:31:17;;;;;;;3.05;1.05;;;;;;;;;;10073514;29;20631;-89
2022/08/21 20:36:20;;;;;;;1.48;1.13;;;;;;;;;;10072206;29;20536;-89
2022/08/21 20:41:25;;;;;;;4.88;1.30;;;;;;;;;;10071098;29;20511;-89
2022/08/21 20:46:30;;;;;;;3.30;1.08;;;;;;;;;;10074118;29;21034;-89
2022/08/21 20:51:35;;;;;;;4.13;1.20;;;;;;;;;;10073878;29;20411;-89
2022/08/21 20:56:45;;;;;;;7.73;1.70;;;;;;;;;;10068511;29;20437;-92
2022/08/21 21:01:48;;;;;;;4.80;1.45;;;;;;;;;;10074740;29;20552;-90
2022/08/21 21:06:52;;;;;;;2.17;1.20;;;;;;;;;;10075302;29;20456;-89
2022/08/21 21:12:01;;;;;;;2.42;1.20;;;;;;;;;;10069276;29;20454;-89
2022/08/21 21:17:06;;;;;;;6.20;1.33;;;;;;;;;;10070469;29;20886;-89
2022/08/21 21:22:10;;;;;;;2.03;1.20;;;;;;;;;;10072625;29;20521;-89
2022/08/21 21:27:19;;;;;;;2.25;1.00;;;;;;;;;;10069116;29;20666;-89
2022/08/21 21:32:22;;;;;;;2.97;1.17;;;;;;;;;;10072399;29;20525;-89
2022/08/21 21:37:28;;;;;;;2.40;1.37;;;;;;;;;;10075185;29;20446;-89
2022/08/21 21:42:41;;;;;;;3.10;1.60;;;;;;;;;;10068000;29;20468;-89
2022/08/21 21:47:56;;;;;;;1.70;1.03;;;;;;;;;;10072486;29;20428;-89
2022/08/21 21:53:10;;;;;;;3.67;1.60;;;;;;;;;;10065474;29;20420;-89
2022/08/21 21:58:47;;;;;;;2.70;1.40;;;;;;;;;;10067171;29;20430;-89
2022/08/21 22:03:59;;;;;;;2.90;1.60;;;;;;;;;;10071132;29;20436;-89
2022/08/21 22:09:08;;;;;;;3.75;1.60;;;;;;;;;;10064972;29;20460;-89
2022/08/21 22:14:13;;;;;;;2.30;1.60;;;;;;;;;;10070902;29;20465;-89
2022/08/21 22:19:21;;;;;;;4.78;1.90;;;;;;;;;;10073401;29;20919;-89
2022/08/21 22:24:28;;;;;;;4.13;1.70;;;;;;;;;;10067581;29;20433;-89
2022/08/21 22:29:43;;;;;;;3.57;1.90;;;;;;;;;;10064504;29;20420;-89
2022/08/21 22:35:01;;;;;;;3.72;1.88;;;;;;;;;;10079904;29;20843;-89
2022/08/21 22:40:05;;;;;;;2.50;2.10;;;;;;;;;;10077628;29;20468;-89
2022/08/21 22:45:10;;;;;;;3.20;1.90;;;;;;;;;;10095904;29;20555;-88
2022/08/21 22:50:21;;;;;;;3.97;1.80;;;;;;;;;;10109993;29;20867;-89
2022/08/21 22:55:25;;;;;;;3.37;2.00;;;;;;;;;;10075737;29;20452;-89
2022/08/21 23:00:51;;;;;;;2.83;2.30;;;;;;;;;;10076384;29;21076;-89
2022/08/21 23:05:54;;;;;;;4.90;2.63;;;;;;;;;;10076816;29;20530;-89
2022/08/21 23:10:58;;;;;;;3.77;2.37;;;;;;;;;;10076626;29;20979;-89
2022/08/21 23:16:07;;;;;;;3.78;2.40;;;;;;;;;;10074756;29;20503;-89
2022/08/21 23:21:19;;;;;;;3.23;2.20;;;;;;;;;;10077525;29;20511;-90
2022/08/21 23:26:28;;;;;;;2.50;2.17;;;;;;;;;;10070801;29;20471;-90
2022/08/21 23:31:35;;;;;;;4.55;2.35;;;;;;;;;;10077283;29;20426;-89
2022/08/21 23:42:16;;;;;;;2.50;2.30;;;;;;;;;;10068104;29;20425;-89
2022/08/21 23:47:32;;;;;;;4.40;2.10;;;;;;;;;;10075321;29;20617;-89
2022/08/21 23:52:44;;;;;;;2.60;1.95;;;;;;;;;;10070074;29;20416;-89
2022/08/21 23:57:57;;;;;;;2.50;2.00;;;;;;;;;;10074048;29;20898;-89
